Time,TemperatureF,DewpointF,PressureIn,WindDirection,WindDirectionDegrees,WindSpeedMPH,WindSpeedGustMPH,Humidity,HourlyPrecipIn,Conditions,Clouds,dailyrainin,SoftwareType,DateUTC
2013-04-10 00:00:00,58.3,40.0,29.94,NNW,337,4.0,4.0,51,0.00,,,0.00,Rainwise IP-100,2013-04-10 04:00:00,
2013-04-10 00:01:00,58.5,41.0,29.95,NNW,337,4.2,4.2,51,0.00,,,0.00,Rainwise IP-100,2013-04-10 04:01:00,
2013-04-10 00:06:00,58.9,40.0,29.94,NNW,337,3.7,5.6,50,0.00,,,0.00,Rainwise IP-100,2013-04-10 04:06:00,
2013-04-10 00:11:00,59.2,40.0,29.95,North,360,4.4,6.3,50,0.00,,,0.00,Rainwise IP-100,2013-04-10 04:11:00,
2013-04-10 00:16:00,59.5,40.0,29.94,North,360,3.5,5.1,49,0.00,,,0.00,Rainwise IP-100,2013-04-10 04:16:00,
2013-04-10 00:21:00,59.8,40.0,29.94,North,360,1.9,4.9,48,0.00,,,0.00,Rainwise IP-100,2013-04-10 04:21:00,
2013-04-10 00:26:00,60.0,39.0,29.94,NNE,22,2.1,3.7,47,0.00,,,0.00,Rainwise IP-100,2013-04-10 04:26:00,
2013-04-10 00:32:00,60.4,40.0,29.94,NNE,22,1.9,4.9,47,0.00,,,0.00,Rainwise IP-100,2013-04-10 04:32:00,
2013-04-10 00:36:00,60.7,39.0,29.94,NNE,22,2.8,5.1,46,0.00,,,0.00,Rainwise IP-100,2013-04-10 04:36:00,
2013-04-10 00:41:00,60.8,40.0,29.93,NE,45,0.0,4.4,46,0.00,,,0.00,Rainwise IP-100,2013-04-10 04:41:00,
2013-04-10 00:46:00,60.8,40.0,29.92,NNE,22,2.3,3.7,46,0.00,,,0.00,Rainwise IP-100,2013-04-10 04:46:00,
2013-04-10 00:51:00,60.9,40.0,29.92,ENE,67,0.0,4.0,46,0.00,,,0.00,Rainwise IP-100,2013-04-10 04:51:00,
2013-04-10 00:56:00,60.9,40.0,29.92,NE,45,1.2,2.1,46,0.00,,,0.00,Rainwise IP-100,2013-04-10 04:56:00,
2013-04-10 01:00:00,60.9,40.0,29.91,NE,45,0.0,2.3,46,0.00,,,0.00,Rainwise IP-100,2013-04-10 05:00:00,
2013-04-10 01:01:00,60.9,40.0,29.92,NE,45,0.0,2.3,46,0.00,,,0.00,Rainwise IP-100,2013-04-10 05:01:00,
2013-04-10 01:02:00,60.9,40.0,29.92,NE,45,0.0,2.3,46,0.00,,,0.00,Rainwise IP-100,2013-04-10 05:02:00,
2013-04-10 01:06:00,60.9,40.0,29.91,NW,315,0.0,2.6,46,0.00,,,0.00,Rainwise IP-100,2013-04-10 05:06:00,
2013-04-10 01:11:00,60.8,39.0,29.91,NW,315,0.0,1.6,45,0.00,,,0.00,Rainwise IP-100,2013-04-10 05:11:00,
2013-04-10 01:16:00,61.0,39.0,29.90,ENE,67,0.0,1.9,45,0.00,,,0.00,Rainwise IP-100,2013-04-10 05:16:00,
2013-04-10 01:21:00,61.1,39.0,29.91,ENE,67,0.0,1.2,45,0.00,,,0.00,Rainwise IP-100,2013-04-10 05:21:00,
2013-04-10 01:26:00,60.5,39.0,29.91,SSE,157,3.5,3.7,46,0.00,,,0.00,Rainwise IP-100,2013-04-10 05:26:00,
2013-04-10 01:31:00,59.8,39.0,29.91,East,90,7.7,7.7,47,0.00,,,0.00,Rainwise IP-100,2013-04-10 05:31:00,
2013-04-10 01:36:00,58.6,40.0,29.91,SE,135,4.7,7.9,50,0.00,,,0.00,Rainwise IP-100,2013-04-10 05:36:00,
2013-04-10 01:37:00,58.3,40.0,29.91,ESE,112,4.0,6.3,50,0.00,,,0.00,Rainwise IP-100,2013-04-10 05:37:00,
2013-04-10 01:41:00,57.3,40.0,29.91,East,90,5.1,6.3,53,0.00,,,0.00,Rainwise IP-100,2013-04-10 05:41:00,
2013-04-10 01:46:00,56.8,40.0,29.91,SE,135,3.5,5.4,54,0.00,,,0.00,Rainwise IP-100,2013-04-10 05:46:00,
2013-04-10 01:52:00,56.7,40.0,29.90,East,90,4.9,9.1,54,0.00,,,0.00,Rainwise IP-100,2013-04-10 05:52:00,
2013-04-10 01:56:00,55.6,40.0,29.90,East,90,14.2,14.2,56,0.00,,,0.00,Rainwise IP-100,2013-04-10 05:56:00,
2013-04-10 02:01:00,53.8,40.0,29.90,ENE,67,5.6,17.3,60,0.00,,,0.00,Rainwise IP-100,2013-04-10 06:01:00,
2013-04-10 02:06:00,53.1,40.0,29.90,East,90,6.3,13.1,63,0.00,,,0.00,Rainwise IP-100,2013-04-10 06:06:00,
2013-04-10 02:11:00,53.1,41.0,29.89,East,90,6.5,11.7,64,0.00,,,0.00,Rainwise IP-100,2013-04-10 06:11:00,
2013-04-10 02:16:00,52.9,41.0,29.88,ENE,67,12.1,15.9,65,0.00,,,0.00,Rainwise IP-100,2013-04-10 06:16:00,
2013-04-10 02:21:00,52.4,41.0,29.88,ENE,67,4.0,13.1,67,0.00,,,0.00,Rainwise IP-100,2013-04-10 06:21:00,
2013-04-10 02:26:00,52.1,42.0,29.88,NE,45,4.2,7.2,68,0.00,,,0.00,Rainwise IP-100,2013-04-10 06:26:00,
2013-04-10 02:31:00,52.0,42.0,29.88,SE,135,3.3,7.0,69,0.00,,,0.00,Rainwise IP-100,2013-04-10 06:31:00,
2013-04-10 02:36:00,51.8,42.0,29.87,ENE,67,4.2,5.1,69,0.00,,,0.00,Rainwise IP-100,2013-04-10 06:36:00,
2013-04-10 02:41:00,51.4,42.0,29.87,ESE,112,3.7,8.4,70,0.00,,,0.00,Rainwise IP-100,2013-04-10 06:41:00,
2013-04-10 02:46:00,50.9,42.0,29.87,ESE,112,3.0,7.7,71,0.00,,,0.00,Rainwise IP-100,2013-04-10 06:46:00,
2013-04-10 02:51:00,50.5,42.0,29.87,ESE,112,4.0,7.7,73,0.00,,,0.00,Rainwise IP-100,2013-04-10 06:51:00,
2013-04-10 02:56:00,50.6,42.0,29.86,ENE,67,2.6,7.2,73,0.00,,,0.00,Rainwise IP-100,2013-04-10 06:56:00,
2013-04-10 03:01:00,50.9,43.0,29.86,ENE,67,4.0,5.8,74,0.00,,,0.00,Rainwise IP-100,2013-04-10 07:01:00,
2013-04-10 03:06:00,51.0,43.0,29.86,NE,45,4.2,5.4,74,0.00,,,0.00,Rainwise IP-100,2013-04-10 07:06:00,
2013-04-10 03:11:00,51.3,43.0,29.88,NNW,337,5.8,7.2,74,0.00,,,0.00,Rainwise IP-100,2013-04-10 07:11:00,
2013-04-10 03:12:00,51.3,43.0,29.88,NNE,22,7.2,7.2,74,0.00,,,0.00,Rainwise IP-100,2013-04-10 07:12:00,
2013-04-10 03:17:00,52.2,43.0,29.92,NNW,337,9.3,22.2,73,0.00,,,0.00,Rainwise IP-100,2013-04-10 07:17:00,
2013-04-10 03:21:00,53.8,44.0,29.91,NNW,337,13.5,19.1,70,0.00,,,0.00,Rainwise IP-100,2013-04-10 07:21:00,
2013-04-10 03:22:00,54.2,44.0,29.91,NNW,337,12.6,15.6,69,0.00,,,0.00,Rainwise IP-100,2013-04-10 07:22:00,
2013-04-10 03:26:00,56.1,44.0,29.91,NNW,337,6.3,15.6,65,0.00,,,0.00,Rainwise IP-100,2013-04-10 07:26:00,
2013-04-10 03:31:00,57.1,44.0,29.91,NNW,337,4.2,10.5,62,0.00,,,0.00,Rainwise IP-100,2013-04-10 07:31:00,
2013-04-10 03:36:00,58.1,44.0,29.90,NNW,337,8.2,11.4,59,0.00,,,0.00,Rainwise IP-100,2013-04-10 07:36:00,
2013-04-10 03:41:00,59.0,44.0,29.89,NNW,337,7.7,12.6,57,0.00,,,0.00,Rainwise IP-100,2013-04-10 07:41:00,
2013-04-10 03:42:00,59.2,44.0,29.90,NNW,337,10.5,12.6,57,0.00,,,0.00,Rainwise IP-100,2013-04-10 07:42:00,
2013-04-10 03:46:00,60.2,43.0,29.90,NNW,337,5.1,14.5,54,0.00,,,0.00,Rainwise IP-100,2013-04-10 07:46:00,
2013-04-10 03:47:00,60.2,43.0,29.90,NNE,22,5.6,14.5,54,0.00,,,0.00,Rainwise IP-100,2013-04-10 07:47:00,
2013-04-10 03:52:00,60.6,43.0,29.90,NNW,337,8.2,11.7,53,0.00,,,0.00,Rainwise IP-100,2013-04-10 07:52:00,
2013-04-10 03:56:00,60.6,43.0,29.91,North,360,14.5,14.5,53,0.00,,,0.00,Rainwise IP-100,2013-04-10 07:56:00,
2013-04-10 03:57:00,60.6,43.0,29.91,NNW,337,5.1,14.7,53,0.00,,,0.00,Rainwise IP-100,2013-04-10 07:57:00,
2013-04-10 04:02:00,60.3,44.0,29.90,NNW,337,16.3,16.3,55,0.00,,,0.00,Rainwise IP-100,2013-04-10 08:02:00,
2013-04-10 04:06:00,59.7,45.0,29.90,NNW,337,10.0,16.3,58,0.00,,,0.00,Rainwise IP-100,2013-04-10 08:06:00,
2013-04-10 04:12:00,59.1,45.0,29.91,NNW,337,6.3,17.3,60,0.00,,,0.00,Rainwise IP-100,2013-04-10 08:12:00,
2013-04-10 04:16:00,58.7,46.0,29.91,NNW,337,7.9,12.1,62,0.00,,,0.00,Rainwise IP-100,2013-04-10 08:16:00,
2013-04-10 04:21:00,58.5,47.0,29.91,North,360,9.3,16.6,63,0.00,,,0.00,Rainwise IP-100,2013-04-10 08:21:00,
2013-04-10 04:26:00,58.2,46.0,29.92,NNW,337,4.0,12.1,64,0.00,,,0.00,Rainwise IP-100,2013-04-10 08:26:00,
2013-04-10 04:31:00,57.9,47.0,29.91,NNE,22,3.7,7.9,65,0.00,,,0.00,Rainwise IP-100,2013-04-10 08:31:00,
2013-04-10 04:36:00,57.6,47.0,29.90,ENE,67,3.7,7.0,66,0.00,,,0.00,Rainwise IP-100,2013-04-10 08:36:00,
2013-04-10 04:37:00,57.6,47.0,29.90,ENE,67,4.2,7.0,66,0.00,,,0.00,Rainwise IP-100,2013-04-10 08:37:00,
2013-04-10 04:42:00,57.2,46.0,29.90,ENE,67,3.3,7.5,66,0.00,,,0.00,Rainwise IP-100,2013-04-10 08:42:00,
2013-04-10 04:45:00,57.0,46.0,29.91,ENE,67,5.4,5.8,67,0.00,,,0.00,Rainwise IP-100,2013-04-10 08:45:00,
2013-04-10 04:46:00,56.9,46.0,29.91,NE,45,4.9,5.8,67,0.00,,,0.00,Rainwise IP-100,2013-04-10 08:46:00,
2013-04-10 04:47:00,56.9,46.0,29.91,NNE,22,2.6,6.8,67,0.00,,,0.00,Rainwise IP-100,2013-04-10 08:47:00,
2013-04-10 04:48:00,56.9,46.0,29.91,NE,45,3.3,6.8,67,0.00,,,0.00,Rainwise IP-100,2013-04-10 08:48:00,
2013-04-10 04:52:00,56.7,46.0,29.91,NNE,22,2.3,6.5,68,0.00,,,0.00,Rainwise IP-100,2013-04-10 08:52:00,
2013-04-10 04:56:00,56.6,46.0,29.91,NE,45,5.4,7.0,68,0.00,,,0.00,Rainwise IP-100,2013-04-10 08:56:00,
2013-04-10 04:57:00,56.5,46.0,29.91,NE,45,3.0,7.0,68,0.00,,,0.00,Rainwise IP-100,2013-04-10 08:57:00,
2013-04-10 04:58:00,56.5,47.0,29.92,ENE,67,4.2,7.0,69,0.00,,,0.00,Rainwise IP-100,2013-04-10 08:58:00,
2013-04-10 04:59:00,56.5,47.0,29.91,ENE,67,2.8,7.0,69,0.00,,,0.00,Rainwise IP-100,2013-04-10 08:59:00,
2013-04-10 05:04:00,55.4,45.0,29.92,NE,45,3.0,4.7,69,0.00,,,0.00,Rainwise IP-100,2013-04-10 09:04:00,
2013-04-10 05:05:00,55.3,45.0,29.92,NNE,22,3.0,4.7,69,0.00,,,0.00,Rainwise IP-100,2013-04-10 09:05:00,
2013-04-10 05:06:00,55.3,45.0,29.92,NNE,22,2.8,4.7,69,0.00,,,0.00,Rainwise IP-100,2013-04-10 09:06:00,
2013-04-10 05:08:00,55.1,46.0,29.93,NE,45,2.6,5.4,70,0.00,,,0.00,Rainwise IP-100,2013-04-10 09:08:00,
2013-04-10 05:11:00,55.2,46.0,29.92,NNE,22,5.8,7.0,71,0.00,,,0.00,Rainwise IP-100,2013-04-10 09:11:00,
2013-04-10 05:12:00,55.4,46.0,29.92,ENE,67,6.5,7.2,71,0.00,,,0.00,Rainwise IP-100,2013-04-10 09:12:00,
2013-04-10 05:16:00,55.6,47.0,29.92,ENE,67,4.7,7.2,71,0.00,,,0.00,Rainwise IP-100,2013-04-10 09:16:00,
2013-04-10 05:18:00,55.6,47.0,29.92,ENE,67,4.2,6.8,71,0.00,,,0.00,Rainwise IP-100,2013-04-10 09:18:00,
2013-04-10 05:20:00,55.6,47.0,29.92,ENE,67,4.2,6.8,71,0.00,,,0.00,Rainwise IP-100,2013-04-10 09:20:00,
2013-04-10 05:25:00,55.3,46.0,29.92,ENE,67,3.0,6.3,71,0.00,,,0.00,Rainwise IP-100,2013-04-10 09:25:00,
2013-04-10 05:26:00,55.3,47.0,29.92,ENE,67,2.6,6.3,72,0.00,,,0.00,Rainwise IP-100,2013-04-10 09:26:00,
2013-04-10 05:29:00,55.2,47.0,29.92,ENE,67,2.8,4.4,72,0.00,,,0.00,Rainwise IP-100,2013-04-10 09:29:00,
2013-04-10 05:30:00,55.2,47.0,29.92,ENE,67,2.6,4.4,72,0.00,,,0.00,Rainwise IP-100,2013-04-10 09:30:00,
2013-04-10 05:32:00,55.2,47.0,29.92,ENE,67,3.3,4.0,72,0.00,,,0.00,Rainwise IP-100,2013-04-10 09:32:00,
2013-04-10 05:34:00,55.2,47.0,29.93,East,90,2.6,3.7,72,0.00,,,0.00,Rainwise IP-100,2013-04-10 09:34:00,
2013-04-10 05:37:00,54.8,47.0,29.92,ESE,112,8.6,8.6,72,0.00,,,0.00,Rainwise IP-100,2013-04-10 09:37:00,
2013-04-10 05:38:00,54.3,46.0,29.92,ESE,112,7.7,9.1,72,0.00,,,0.00,Rainwise IP-100,2013-04-10 09:38:00,
2013-04-10 05:39:00,53.8,46.0,29.92,ESE,112,6.3,9.1,73,0.00,,,0.00,Rainwise IP-100,2013-04-10 09:39:00,
2013-04-10 05:42:00,52.2,44.0,29.92,ESE,112,7.9,9.3,74,0.00,,,0.00,Rainwise IP-100,2013-04-10 09:42:00,
2013-04-10 05:43:00,51.6,44.0,29.92,ESE,112,7.0,9.6,75,0.00,,,0.00,Rainwise IP-100,2013-04-10 09:43:00,
2013-04-10 05:44:00,51.0,44.0,29.92,ESE,112,8.2,9.6,76,0.00,,,0.00,Rainwise IP-100,2013-04-10 09:44:00,
2013-04-10 05:47:00,49.1,43.0,29.92,ESE,112,8.2,12.6,79,0.00,,,0.00,Rainwise IP-100,2013-04-10 09:47:00,
2013-04-10 05:48:00,49.1,43.0,29.92,ESE,112,6.5,12.6,79,0.00,,,0.00,Rainwise IP-100,2013-04-10 09:48:00,
2013-04-10 05:49:00,48.9,43.0,29.92,ESE,112,8.9,12.6,79,0.00,,,0.00,Rainwise IP-100,2013-04-10 09:49:00,
2013-04-10 05:54:00,48.3,43.0,29.92,ENE,67,3.0,9.3,81,0.00,,,0.00,Rainwise IP-100,2013-04-10 09:54:00,
2013-04-10 05:55:00,48.2,43.0,29.92,ENE,67,3.0,9.3,81,0.00,,,0.00,Rainwise IP-100,2013-04-10 09:55:00,
2013-04-10 05:59:00,48.2,43.0,29.93,ENE,67,1.4,4.2,82,0.00,,,0.00,Rainwise IP-100,2013-04-10 09:59:00,
2013-04-10 06:01:00,48.2,43.0,29.93,ENE,67,0.0,3.7,82,0.00,,,0.00,Rainwise IP-100,2013-04-10 10:01:00,
2013-04-10 06:03:00,48.2,43.0,29.94,SE,135,4.0,4.4,83,0.00,,,0.00,Rainwise IP-100,2013-04-10 10:03:00,
2013-04-10 06:04:00,48.2,43.0,29.94,ESE,112,0.0,4.4,83,0.00,,,0.00,Rainwise IP-100,2013-04-10 10:04:00,
2013-04-10 06:05:00,48.1,43.0,29.94,ESE,112,0.0,4.4,83,0.00,,,0.00,Rainwise IP-100,2013-04-10 10:05:00,
2013-04-10 06:08:00,48.0,43.0,29.95,NNE,22,0.0,4.4,83,0.00,,,0.00,Rainwise IP-100,2013-04-10 10:08:00,
2013-04-10 06:13:00,48.0,44.0,29.95,NNE,22,0.0,2.3,84,0.00,,,0.00,Rainwise IP-100,2013-04-10 10:13:00,
2013-04-10 06:14:00,48.0,44.0,29.94,SSE,157,3.3,3.3,84,0.00,,,0.00,Rainwise IP-100,2013-04-10 10:14:00,
2013-04-10 06:15:00,48.0,44.0,29.94,SSE,157,3.5,3.5,84,0.00,,,0.00,Rainwise IP-100,2013-04-10 10:15:00,
2013-04-10 06:19:00,48.1,44.0,29.95,SSE,157,1.9,3.5,84,0.00,,,0.00,Rainwise IP-100,2013-04-10 10:19:00,
2013-04-10 06:20:00,48.1,44.0,29.95,SSE,157,3.5,3.7,84,0.00,,,0.00,Rainwise IP-100,2013-04-10 10:20:00,
2013-04-10 06:23:00,48.1,44.0,29.95,ESE,112,4.4,4.4,84,0.00,,,0.00,Rainwise IP-100,2013-04-10 10:23:00,
2013-04-10 06:25:00,48.2,44.0,29.95,ESE,112,5.6,5.6,85,0.00,,,0.00,Rainwise IP-100,2013-04-10 10:25:00,
2013-04-10 06:28:00,48.3,44.0,29.95,ESE,112,4.2,7.0,85,0.00,,,0.00,Rainwise IP-100,2013-04-10 10:28:00,
2013-04-10 06:31:00,48.4,44.0,29.95,ESE,112,5.4,8.2,85,0.00,,,0.00,Rainwise IP-100,2013-04-10 10:31:00,
2013-04-10 06:32:00,48.4,44.0,29.95,ESE,112,6.3,8.2,85,0.00,,,0.00,Rainwise IP-100,2013-04-10 10:32:00,
2013-04-10 06:33:00,48.3,44.0,29.95,ESE,112,6.3,8.2,85,0.00,,,0.00,Rainwise IP-100,2013-04-10 10:33:00,
2013-04-10 06:36:00,48.3,44.0,29.94,ESE,112,7.5,8.2,85,0.00,,,0.00,Rainwise IP-100,2013-04-10 10:36:00,
2013-04-10 06:37:00,48.2,44.0,29.94,ESE,112,7.0,8.2,85,0.00,,,0.00,Rainwise IP-100,2013-04-10 10:37:00,
2013-04-10 06:41:00,48.0,44.0,29.95,NNE,22,2.1,8.2,85,0.00,,,0.00,Rainwise IP-100,2013-04-10 10:41:00,
2013-04-10 06:42:00,47.9,44.0,29.95,NNE,22,2.8,7.5,85,0.00,,,0.00,Rainwise IP-100,2013-04-10 10:42:00,
2013-04-10 06:45:00,47.9,44.0,29.95,ENE,67,3.5,5.6,85,0.00,,,0.00,Rainwise IP-100,2013-04-10 10:45:00,
2013-04-10 06:46:00,48.0,44.0,29.95,East,90,3.7,5.6,85,0.00,,,0.00,Rainwise IP-100,2013-04-10 10:46:00,
2013-04-10 06:49:00,48.1,44.0,29.96,ESE,112,2.3,5.1,86,0.00,,,0.00,Rainwise IP-100,2013-04-10 10:49:00,
2013-04-10 06:50:00,48.2,44.0,29.96,SSE,157,2.3,4.4,86,0.00,,,0.00,Rainwise IP-100,2013-04-10 10:50:00,
2013-04-10 06:52:00,48.2,44.0,29.96,South,180,1.6,3.5,86,0.00,,,0.00,Rainwise IP-100,2013-04-10 10:52:00,
2013-04-10 06:53:00,48.2,44.0,29.96,South,180,1.6,3.5,86,0.00,,,0.00,Rainwise IP-100,2013-04-10 10:53:00,
2013-04-10 06:54:00,48.2,44.0,29.96,South,180,1.9,3.0,86,0.00,,,0.00,Rainwise IP-100,2013-04-10 10:54:00,
2013-04-10 06:57:00,48.2,44.0,29.95,SE,135,3.5,3.5,86,0.00,,,0.00,Rainwise IP-100,2013-04-10 10:57:00,
2013-04-10 06:59:00,48.2,44.0,29.95,SE,135,3.5,4.2,86,0.00,,,0.00,Rainwise IP-100,2013-04-10 10:59:00,
2013-04-10 07:00:00,48.2,44.0,29.96,SE,135,3.3,4.4,86,0.00,,,0.00,Rainwise IP-100,2013-04-10 11:00:00,
2013-04-10 07:01:00,48.1,44.0,29.95,SE,135,4.4,4.4,86,0.00,,,0.00,Rainwise IP-100,2013-04-10 11:01:00,
2013-04-10 07:02:00,48.1,44.0,29.95,ESE,112,4.9,4.9,86,0.00,,,0.00,Rainwise IP-100,2013-04-10 11:02:00,
2013-04-10 07:07:00,47.9,45.0,29.95,ESE,112,4.9,7.7,87,0.00,,,0.00,Rainwise IP-100,2013-04-10 11:07:00,
2013-04-10 07:08:00,47.9,45.0,29.95,ESE,112,6.3,7.7,87,0.00,,,0.00,Rainwise IP-100,2013-04-10 11:08:00,
2013-04-10 07:09:00,47.8,45.0,29.95,East,90,7.2,7.7,87,0.00,,,0.00,Rainwise IP-100,2013-04-10 11:09:00,
2013-04-10 07:12:00,47.8,45.0,29.95,ESE,112,3.7,8.4,87,0.00,,,0.00,Rainwise IP-100,2013-04-10 11:12:00,
2013-04-10 07:14:00,47.8,45.0,29.95,ENE,67,6.1,8.4,88,0.00,,,0.00,Rainwise IP-100,2013-04-10 11:14:00,
2013-04-10 07:19:00,47.9,45.0,29.96,East,90,9.3,9.3,88,0.00,,,0.00,Rainwise IP-100,2013-04-10 11:19:00,
2013-04-10 07:20:00,47.9,45.0,29.96,ESE,112,7.0,9.3,88,0.00,,,0.00,Rainwise IP-100,2013-04-10 11:20:00,
2013-04-10 07:22:00,47.9,45.0,29.96,ENE,67,4.7,9.3,88,0.00,,,0.00,Rainwise IP-100,2013-04-10 11:22:00,
2013-04-10 07:23:00,47.9,45.0,29.96,ESE,112,3.0,9.3,88,0.00,,,0.00,Rainwise IP-100,2013-04-10 11:23:00,
2013-04-10 07:24:00,47.9,45.0,29.96,East,90,5.8,9.3,88,0.00,,,0.00,Rainwise IP-100,2013-04-10 11:24:00,
2013-04-10 07:26:00,47.9,45.0,29.96,ESE,112,7.9,8.9,88,0.00,,,0.00,Rainwise IP-100,2013-04-10 11:26:00,
2013-04-10 07:27:00,47.9,45.0,29.96,East,90,2.8,8.9,88,0.00,,,0.00,Rainwise IP-100,2013-04-10 11:27:00,
2013-04-10 07:29:00,47.9,45.0,29.97,ENE,67,4.0,7.9,88,0.00,,,0.00,Rainwise IP-100,2013-04-10 11:29:00,
2013-04-10 07:34:00,48.1,45.0,29.98,ENE,67,3.7,5.6,88,0.00,,,0.00,Rainwise IP-100,2013-04-10 11:34:00,
2013-04-10 07:35:00,48.2,45.0,29.98,ENE,67,4.4,5.6,88,0.00,,,0.00,Rainwise IP-100,2013-04-10 11:35:00,
2013-04-10 07:36:00,48.3,45.0,29.98,ENE,67,5.8,5.8,88,0.00,,,0.00,Rainwise IP-100,2013-04-10 11:36:00,
2013-04-10 07:40:00,48.4,45.0,29.97,East,90,5.1,6.5,88,0.00,,,0.00,Rainwise IP-100,2013-04-10 11:40:00,
2013-04-10 07:42:00,48.4,45.0,29.98,ENE,67,5.4,6.3,88,0.00,,,0.00,Rainwise IP-100,2013-04-10 11:42:00,
2013-04-10 07:43:00,48.5,45.0,29.98,East,90,2.3,6.3,87,0.00,,,0.00,Rainwise IP-100,2013-04-10 11:43:00,
2013-04-10 07:47:00,48.8,45.0,29.97,ENE,67,4.4,6.3,87,0.00,,,0.00,Rainwise IP-100,2013-04-10 11:47:00,
2013-04-10 07:48:00,48.9,45.0,29.97,ENE,67,4.2,6.3,87,0.00,,,0.00,Rainwise IP-100,2013-04-10 11:48:00,
2013-04-10 07:50:00,49.0,45.0,29.98,ENE,67,2.8,6.3,87,0.00,,,0.00,Rainwise IP-100,2013-04-10 11:50:00,
2013-04-10 07:54:00,49.4,45.0,29.98,East,90,4.7,7.2,86,0.00,,,0.00,Rainwise IP-100,2013-04-10 11:54:00,
2013-04-10 07:56:00,49.5,46.0,29.97,ESE,112,4.2,7.2,86,0.00,,,0.00,Rainwise IP-100,2013-04-10 11:56:00,
2013-04-10 07:58:00,49.5,46.0,29.98,ESE,112,4.7,6.3,86,0.00,,,0.00,Rainwise IP-100,2013-04-10 11:58:00,
2013-04-10 07:59:00,49.4,45.0,29.98,ESE,112,2.6,6.3,86,0.00,,,0.00,Rainwise IP-100,2013-04-10 11:59:00,
2013-04-10 08:00:00,49.4,45.0,29.98,ESE,112,3.5,5.1,86,0.00,,,0.00,Rainwise IP-100,2013-04-10 12:00:00,
2013-04-10 08:02:00,49.3,45.0,29.99,ESE,112,4.2,4.9,86,0.00,,,0.00,Rainwise IP-100,2013-04-10 12:02:00,
2013-04-10 08:07:00,49.1,45.0,29.98,ESE,112,5.8,6.5,86,0.00,,,0.00,Rainwise IP-100,2013-04-10 12:07:00,
2013-04-10 08:08:00,49.1,45.0,29.98,ESE,112,6.1,6.5,86,0.00,,,0.00,Rainwise IP-100,2013-04-10 12:08:00,
2013-04-10 08:13:00,49.0,45.0,29.99,ESE,112,4.7,6.5,86,0.00,,,0.00,Rainwise IP-100,2013-04-10 12:13:00,
2013-04-10 08:14:00,48.9,45.0,29.99,ESE,112,4.2,6.5,86,0.00,,,0.00,Rainwise IP-100,2013-04-10 12:14:00,
2013-04-10 08:15:00,48.9,45.0,29.99,ESE,112,3.7,6.5,86,0.00,,,0.00,Rainwise IP-100,2013-04-10 12:15:00,
2013-04-10 08:20:00,48.9,45.0,30.00,ESE,112,4.2,5.1,86,0.00,,,0.00,Rainwise IP-100,2013-04-10 12:20:00,
2013-04-10 08:23:00,48.9,45.0,30.00,ESE,112,3.0,5.1,86,0.00,,,0.00,Rainwise IP-100,2013-04-10 12:23:00,
2013-04-10 08:28:00,49.1,45.0,29.99,ESE,112,6.8,6.8,86,0.00,,,0.00,Rainwise IP-100,2013-04-10 12:28:00,
2013-04-10 08:30:00,49.0,45.0,29.99,ESE,112,7.5,8.9,86,0.00,,,0.00,Rainwise IP-100,2013-04-10 12:30:00,
2013-04-10 08:34:00,48.9,45.0,29.99,ESE,112,6.3,8.9,86,0.00,,,0.00,Rainwise IP-100,2013-04-10 12:34:00,
2013-04-10 08:35:00,48.9,45.0,29.99,ESE,112,6.1,8.9,86,0.00,,,0.00,Rainwise IP-100,2013-04-10 12:35:00,
2013-04-10 08:37:00,48.7,45.0,29.98,ESE,112,7.7,8.6,86,0.00,,,0.00,Rainwise IP-100,2013-04-10 12:37:00,
2013-04-10 08:39:00,48.7,45.0,29.98,ESE,112,9.1,9.6,86,0.00,,,0.00,Rainwise IP-100,2013-04-10 12:39:00,
2013-04-10 08:40:00,48.7,45.0,29.98,ESE,112,8.6,10.7,86,0.00,,,0.00,Rainwise IP-100,2013-04-10 12:40:00,
2013-04-10 08:44:00,48.5,45.0,29.98,ESE,112,6.5,10.7,87,0.00,,,0.00,Rainwise IP-100,2013-04-10 12:44:00,
2013-04-10 08:46:00,48.5,45.0,30.00,East,90,2.3,10.5,87,0.00,,,0.00,Rainwise IP-100,2013-04-10 12:46:00,
2013-04-10 08:51:00,49.0,45.0,29.99,ENE,67,4.7,7.0,86,0.00,,,0.00,Rainwise IP-100,2013-04-10 12:51:00,
2013-04-10 08:56:00,49.5,46.0,29.99,ESE,112,5.4,7.9,86,0.00,,,0.00,Rainwise IP-100,2013-04-10 12:56:00,
2013-04-10 09:01:00,49.1,45.0,29.98,ESE,112,8.9,10.5,85,0.00,,,0.00,Rainwise IP-100,2013-04-10 13:01:00,
2013-04-10 09:06:00,48.0,44.0,29.98,ESE,112,7.9,11.7,86,0.00,,,0.00,Rainwise IP-100,2013-04-10 13:06:00,
2013-04-10 09:11:00,47.8,45.0,29.98,ESE,112,7.7,12.1,87,0.00,,,0.00,Rainwise IP-100,2013-04-10 13:11:00,
2013-04-10 09:16:00,47.8,45.0,29.98,ESE,112,9.1,11.4,87,0.00,,,0.00,Rainwise IP-100,2013-04-10 13:16:00,
2013-04-10 09:22:00,47.6,44.0,29.98,ESE,112,9.8,11.9,87,0.00,,,0.00,Rainwise IP-100,2013-04-10 13:22:00,
2013-04-10 09:26:00,47.3,44.0,29.98,ESE,112,4.7,10.7,88,0.00,,,0.00,Rainwise IP-100,2013-04-10 13:26:00,
2013-04-10 09:31:00,47.3,44.0,29.99,ESE,112,5.8,7.7,88,0.00,,,0.00,Rainwise IP-100,2013-04-10 13:31:00,
2013-04-10 09:37:00,47.3,44.0,29.99,ESE,112,7.7,7.7,88,0.00,,,0.00,Rainwise IP-100,2013-04-10 13:37:00,
2013-04-10 09:42:00,47.3,44.0,29.99,ESE,112,4.9,8.6,88,0.00,,,0.00,Rainwise IP-100,2013-04-10 13:42:00,
2013-04-10 09:47:00,47.6,44.0,29.99,ESE,112,5.6,6.3,87,0.00,,,0.00,Rainwise IP-100,2013-04-10 13:47:00,
2013-04-10 09:52:00,47.8,45.0,29.99,ESE,112,5.6,7.9,87,0.00,,,0.00,Rainwise IP-100,2013-04-10 13:52:00,
2013-04-10 09:57:00,47.5,44.0,29.99,ESE,112,5.8,9.1,87,0.00,,,0.00,Rainwise IP-100,2013-04-10 13:57:00,
2013-04-10 10:02:00,47.3,44.0,29.99,East,90,5.6,8.9,88,0.00,,,0.00,Rainwise IP-100,2013-04-10 14:02:00,
2013-04-10 10:06:00,47.4,44.0,29.99,ESE,112,4.0,8.9,88,0.00,,,0.00,Rainwise IP-100,2013-04-10 14:06:00,
2013-04-10 10:11:00,47.9,45.0,29.99,ESE,112,4.4,5.8,87,0.00,,,0.00,Rainwise IP-100,2013-04-10 14:11:00,
2013-04-10 10:16:00,48.6,45.0,29.99,ESE,112,6.1,8.2,86,0.00,,,0.00,Rainwise IP-100,2013-04-10 14:16:00,
2013-04-10 10:21:00,49.0,45.0,29.99,ENE,67,8.6,9.6,85,0.00,,,0.00,Rainwise IP-100,2013-04-10 14:21:00,
2013-04-10 10:26:00,48.9,45.0,29.98,East,90,8.6,13.3,85,0.00,,,0.00,Rainwise IP-100,2013-04-10 14:26:00,
2013-04-10 10:31:00,48.2,44.0,29.98,East,90,11.0,13.1,85,0.00,,,0.00,Rainwise IP-100,2013-04-10 14:31:00,
2013-04-10 10:32:00,48.1,44.0,29.98,ESE,112,9.3,13.1,85,0.00,,,0.00,Rainwise IP-100,2013-04-10 14:32:00,
2013-04-10 10:36:00,48.3,44.0,29.98,East,90,4.4,11.7,85,0.00,,,0.00,Rainwise IP-100,2013-04-10 14:36:00,
2013-04-10 10:41:00,48.9,45.0,29.99,East,90,4.7,9.6,85,0.00,,,0.00,Rainwise IP-100,2013-04-10 14:41:00,
2013-04-10 10:46:00,49.4,44.0,29.99,ESE,112,5.6,10.3,84,0.00,,,0.00,Rainwise IP-100,2013-04-10 14:46:00,
2013-04-10 10:51:00,49.7,45.0,29.99,East,90,6.5,10.7,84,0.00,,,0.00,Rainwise IP-100,2013-04-10 14:51:00,
2013-04-10 10:56:00,50.0,45.0,29.99,ENE,67,9.1,9.1,83,0.00,,,0.00,Rainwise IP-100,2013-04-10 14:56:00,
2013-04-10 11:01:00,50.5,46.0,29.99,East,90,7.2,10.3,83,0.00,,,0.00,Rainwise IP-100,2013-04-10 15:01:00,
2013-04-10 11:06:00,50.1,45.0,29.99,East,90,5.6,11.0,83,0.00,,,0.00,Rainwise IP-100,2013-04-10 15:06:00,
2013-04-10 11:11:00,50.3,46.0,29.99,East,90,7.9,9.8,83,0.00,,,0.00,Rainwise IP-100,2013-04-10 15:11:00,
2013-04-10 11:16:00,50.6,46.0,29.99,ESE,112,7.2,8.4,83,0.00,,,0.00,Rainwise IP-100,2013-04-10 15:16:00,
2013-04-10 11:21:00,50.9,47.0,29.99,ENE,67,4.7,8.2,83,0.00,,,0.00,Rainwise IP-100,2013-04-10 15:21:00,
2013-04-10 11:26:00,51.6,47.0,29.99,East,90,3.0,6.8,82,0.00,,,0.00,Rainwise IP-100,2013-04-10 15:26:00,
2013-04-10 11:31:00,51.6,47.0,29.99,ESE,112,9.1,11.0,82,0.00,,,0.00,Rainwise IP-100,2013-04-10 15:31:00,
2013-04-10 11:36:00,50.8,46.0,29.99,East,90,5.4,9.6,82,0.00,,,0.00,Rainwise IP-100,2013-04-10 15:36:00,
2013-04-10 11:37:00,50.6,45.0,29.99,East,90,6.3,9.6,82,0.00,,,0.00,Rainwise IP-100,2013-04-10 15:37:00,
2013-04-10 11:42:00,50.6,46.0,29.98,ESE,112,6.8,7.2,83,0.00,,,0.00,Rainwise IP-100,2013-04-10 15:42:00,
2013-04-10 11:47:00,50.7,46.0,29.99,ESE,112,6.3,8.4,83,0.00,,,0.00,Rainwise IP-100,2013-04-10 15:47:00,
2013-04-10 11:52:00,50.7,46.0,29.98,East,90,6.1,7.5,83,0.00,,,0.00,Rainwise IP-100,2013-04-10 15:52:00,
2013-04-10 11:56:00,50.6,46.0,29.98,South,180,4.0,8.2,84,0.00,,,0.00,Rainwise IP-100,2013-04-10 15:56:00,
2013-04-10 12:01:00,50.4,46.0,29.99,East,90,4.7,6.8,84,0.00,,,0.00,Rainwise IP-100,2013-04-10 16:01:00,
2013-04-10 12:06:00,50.9,47.0,29.98,ESE,112,4.7,7.9,84,0.00,,,0.00,Rainwise IP-100,2013-04-10 16:06:00,
2013-04-10 12:11:00,51.6,47.5,29.98,East,90,7.2,7.9,84,0.00,,,0.00,Rainwise IP-100,2013-04-10 16:11:00,
2013-04-10 12:17:00,51.5,47.0,29.98,East,90,5.8,8.9,83,0.00,,,0.00,Rainwise IP-100,2013-04-10 16:17:00,
2013-04-10 12:22:00,51.0,47.0,29.98,ESE,112,7.0,9.3,84,0.00,,,0.00,Rainwise IP-100,2013-04-10 16:22:00,
2013-04-10 12:26:00,50.8,47.0,29.98,ESE,112,6.3,9.3,84,0.00,,,0.00,Rainwise IP-100,2013-04-10 16:26:00,
2013-04-10 12:32:00,50.7,46.0,29.98,ESE,112,3.5,7.2,85,0.00,,,0.00,Rainwise IP-100,2013-04-10 16:32:00,
2013-04-10 12:37:00,50.8,47.0,29.98,East,90,7.5,9.1,85,0.00,,,0.00,Rainwise IP-100,2013-04-10 16:37:00,
2013-04-10 12:42:00,50.8,47.0,29.97,ESE,112,12.4,12.4,85,0.00,,,0.00,Rainwise IP-100,2013-04-10 16:42:00,
2013-04-10 12:46:00,50.2,46.0,29.98,SE,135,8.2,12.6,85,0.00,,,0.00,Rainwise IP-100,2013-04-10 16:46:00,
2013-04-10 12:47:00,50.2,46.0,29.98,ESE,112,8.6,12.4,85,0.00,,,0.00,Rainwise IP-100,2013-04-10 16:47:00,
2013-04-10 12:51:00,49.8,46.0,29.97,ESE,112,11.7,12.1,86,0.00,,,0.00,Rainwise IP-100,2013-04-10 16:51:00,
2013-04-10 12:56:00,49.9,46.0,29.97,ESE,112,11.7,13.8,86,0.00,,,0.00,Rainwise IP-100,2013-04-10 16:56:00,
2013-04-10 13:02:00,50.1,46.0,29.98,ENE,67,4.7,14.2,87,0.00,,,0.00,Rainwise IP-100,2013-04-10 17:02:00,
2013-04-10 13:06:00,50.9,47.5,29.97,East,90,6.8,10.0,87,0.00,,,0.00,Rainwise IP-100,2013-04-10 17:06:00,
2013-04-10 13:11:00,52.1,48.0,29.97,ESE,112,6.1,10.0,86,0.00,,,0.00,Rainwise IP-100,2013-04-10 17:11:00,
2013-04-10 13:16:00,52.5,48.0,29.98,ESE,112,5.8,8.9,84,0.00,,,0.00,Rainwise IP-100,2013-04-10 17:16:00,
2013-04-10 13:21:00,52.1,47.5,29.98,ESE,112,10.7,10.7,84,0.00,,,0.00,Rainwise IP-100,2013-04-10 17:21:00,
2013-04-10 13:26:00,51.2,47.0,29.98,ESE,112,9.3,12.1,84,0.00,,,0.00,Rainwise IP-100,2013-04-10 17:26:00,
2013-04-10 13:31:00,50.8,47.0,29.98,ESE,112,7.9,11.2,85,0.00,,,0.00,Rainwise IP-100,2013-04-10 17:31:00,
2013-04-10 13:36:00,51.2,47.5,29.97,ESE,112,6.8,12.8,86,0.00,,,0.00,Rainwise IP-100,2013-04-10 17:36:00,
2013-04-10 13:42:00,51.7,47.5,29.97,East,90,7.7,13.3,85,0.00,,,0.00,Rainwise IP-100,2013-04-10 17:42:00,
2013-04-10 13:46:00,52.3,47.5,29.97,ENE,67,5.8,11.0,85,0.00,,,0.00,Rainwise IP-100,2013-04-10 17:46:00,
2013-04-10 13:52:00,52.5,48.0,29.97,ESE,112,9.3,11.7,84,0.00,,,0.00,Rainwise IP-100,2013-04-10 17:52:00,
2013-04-10 13:56:00,52.0,47.5,29.97,East,90,6.8,11.2,84,0.00,,,0.00,Rainwise IP-100,2013-04-10 17:56:00,
2013-04-10 14:01:00,52.1,47.5,29.96,ESE,112,8.6,10.5,85,0.00,,,0.00,Rainwise IP-100,2013-04-10 18:01:00,
2013-04-10 14:07:00,52.4,47.5,29.97,East,90,9.8,11.4,85,0.00,,,0.00,Rainwise IP-100,2013-04-10 18:07:00,
2013-04-10 14:11:00,52.6,48.0,29.96,East,90,6.1,10.7,84,0.00,,,0.00,Rainwise IP-100,2013-04-10 18:11:00,
2013-04-10 14:17:00,53.1,47.5,29.96,East,90,7.9,10.3,83,0.00,,,0.00,Rainwise IP-100,2013-04-10 18:17:00,
2013-04-10 14:22:00,53.5,48.0,29.96,ENE,67,10.7,11.2,83,0.00,,,0.00,Rainwise IP-100,2013-04-10 18:22:00,
2013-04-10 14:27:00,54.0,48.0,29.96,East,90,11.4,12.1,82,0.00,,,0.00,Rainwise IP-100,2013-04-10 18:27:00,
2013-04-10 14:31:00,54.3,49.0,29.96,ESE,112,4.9,11.7,81,0.00,,,0.00,Rainwise IP-100,2013-04-10 18:31:00,
2013-04-10 14:36:00,54.6,48.0,29.96,ESE,112,6.1,10.5,80,0.00,,,0.00,Rainwise IP-100,2013-04-10 18:36:00,
2013-04-10 14:37:00,54.6,48.0,29.96,East,90,8.4,10.5,80,0.00,,,0.00,Rainwise IP-100,2013-04-10 18:37:00,
2013-04-10 14:41:00,54.8,49.0,29.96,ESE,112,8.2,14.2,80,0.00,,,0.00,Rainwise IP-100,2013-04-10 18:41:00,
2013-04-10 14:47:00,54.4,48.0,29.96,ESE,112,9.6,12.6,80,0.00,,,0.00,Rainwise IP-100,2013-04-10 18:47:00,
2013-04-10 14:51:00,54.2,48.0,29.96,ENE,67,11.4,12.6,80,0.00,,,0.00,Rainwise IP-100,2013-04-10 18:51:00,
2013-04-10 14:57:00,54.4,48.0,29.96,East,90,11.9,13.3,80,0.00,,,0.00,Rainwise IP-100,2013-04-10 18:57:00,
2013-04-10 15:02:00,55.0,49.0,29.95,East,90,5.4,13.5,80,0.00,,,0.00,Rainwise IP-100,2013-04-10 19:02:00,
2013-04-10 15:06:00,55.9,50.0,29.95,ENE,67,10.0,13.5,79,0.00,,,0.00,Rainwise IP-100,2013-04-10 19:06:00,
2013-04-10 15:11:00,57.2,50.0,29.95,NE,45,10.0,12.4,77,0.00,,,0.00,Rainwise IP-100,2013-04-10 19:11:00,
2013-04-10 15:16:00,57.8,50.5,29.94,ENE,67,7.9,12.1,76,0.00,,,0.00,Rainwise IP-100,2013-04-10 19:16:00,
2013-04-10 15:21:00,58.6,50.5,29.94,ENE,67,6.8,11.9,74,0.00,,,0.00,Rainwise IP-100,2013-04-10 19:21:00,
2013-04-10 15:26:00,59.2,50.0,29.93,East,90,7.2,10.7,72,0.00,,,0.00,Rainwise IP-100,2013-04-10 19:26:00,
2013-04-10 15:32:00,59.4,50.5,29.93,East,90,9.1,10.7,72,0.00,,,0.00,Rainwise IP-100,2013-04-10 19:32:00,
2013-04-10 15:36:00,59.7,50.0,29.92,ENE,67,7.7,11.2,71,0.00,,,0.00,Rainwise IP-100,2013-04-10 19:36:00,
2013-04-10 15:41:00,60.3,50.5,29.93,East,90,1.9,9.3,70,0.00,,,0.00,Rainwise IP-100,2013-04-10 19:41:00,
2013-04-10 15:46:00,61.4,51.0,29.92,ENE,67,7.9,7.9,69,0.00,,,0.00,Rainwise IP-100,2013-04-10 19:46:00,
2013-04-10 15:51:00,61.4,50.5,29.92,ESE,112,10.0,10.0,68,0.00,,,0.00,Rainwise IP-100,2013-04-10 19:51:00,
2013-04-10 15:56:00,60.2,50.0,29.91,East,90,8.4,12.8,69,0.00,,,0.00,Rainwise IP-100,2013-04-10 19:56:00,
2013-04-10 15:57:00,60.0,50.0,29.91,ENE,67,11.0,12.8,69,0.00,,,0.00,Rainwise IP-100,2013-04-10 19:57:00,
2013-04-10 16:02:00,59.8,50.0,29.90,ENE,67,6.1,11.0,70,0.00,,,0.00,Rainwise IP-100,2013-04-10 20:02:00,
2013-04-10 16:07:00,61.0,50.5,29.90,ENE,67,9.8,10.0,69,0.00,,,0.00,Rainwise IP-100,2013-04-10 20:07:00,
2013-04-10 16:11:00,61.6,51.0,29.90,ESE,112,4.7,10.5,69,0.00,,,0.00,Rainwise IP-100,2013-04-10 20:11:00,
2013-04-10 16:16:00,62.0,51.0,29.91,ENE,67,1.6,9.8,68,0.00,,,0.00,Rainwise IP-100,2013-04-10 20:16:00,
2013-04-10 16:21:00,62.2,51.0,29.92,ENE,67,4.4,8.6,67,0.00,,,0.00,Rainwise IP-100,2013-04-10 20:21:00,
2013-04-10 16:27:00,62.7,51.0,29.92,ENE,67,7.5,7.5,66,0.00,,,0.00,Rainwise IP-100,2013-04-10 20:27:00,
2013-04-10 16:32:00,63.1,51.0,29.91,East,90,10.7,12.1,66,0.00,,,0.00,Rainwise IP-100,2013-04-10 20:32:00,
2013-04-10 16:36:00,62.9,51.0,29.90,East,90,5.1,10.7,66,0.00,,,0.00,Rainwise IP-100,2013-04-10 20:36:00,
2013-04-10 16:37:00,62.9,51.0,29.90,ESE,112,5.6,10.7,66,0.00,,,0.00,Rainwise IP-100,2013-04-10 20:37:00,
2013-04-10 16:42:00,62.6,51.0,29.91,ESE,112,3.5,8.2,66,0.00,,,0.00,Rainwise IP-100,2013-04-10 20:42:00,
2013-04-10 16:46:00,62.8,51.0,29.90,ESE,112,7.5,7.9,66,0.00,,,0.00,Rainwise IP-100,2013-04-10 20:46:00,
2013-04-10 16:51:00,62.5,51.0,29.89,ESE,112,8.2,10.3,66,0.00,,,0.00,Rainwise IP-100,2013-04-10 20:51:00,
2013-04-10 16:56:00,61.7,50.0,29.89,East,90,7.5,10.5,66,0.00,,,0.00,Rainwise IP-100,2013-04-10 20:56:00,
2013-04-10 16:57:00,61.5,50.0,29.89,ESE,112,8.6,10.5,66,0.00,,,0.00,Rainwise IP-100,2013-04-10 20:57:00,
2013-04-10 17:01:00,61.0,50.0,29.90,East,90,5.8,10.3,67,0.00,,,0.00,Rainwise IP-100,2013-04-10 21:01:00,
2013-04-10 17:06:00,61.1,50.5,29.89,ENE,67,7.5,10.0,68,0.00,,,0.00,Rainwise IP-100,2013-04-10 21:06:00,
2013-04-10 17:11:00,61.3,50.5,29.89,East,90,3.0,9.6,68,0.00,,,0.00,Rainwise IP-100,2013-04-10 21:11:00,
2013-04-10 17:16:00,61.0,50.5,29.88,East,90,9.3,11.0,68,0.00,,,0.00,Rainwise IP-100,2013-04-10 21:16:00,
2013-04-10 17:21:00,60.0,50.0,29.89,East,90,8.6,14.0,69,0.00,,,0.00,Rainwise IP-100,2013-04-10 21:21:00,
2013-04-10 17:26:00,59.2,49.0,29.88,East,90,10.0,11.9,70,0.00,,,0.00,Rainwise IP-100,2013-04-10 21:26:00,
2013-04-10 17:31:00,58.5,50.0,29.88,ESE,112,10.7,13.3,72,0.00,,,0.00,Rainwise IP-100,2013-04-10 21:31:00,
2013-04-10 17:32:00,58.4,49.0,29.88,ESE,112,10.5,13.3,72,0.00,,,0.00,Rainwise IP-100,2013-04-10 21:32:00,
2013-04-10 17:37:00,57.2,48.0,29.86,SE,135,13.8,16.6,73,0.00,,,0.00,Rainwise IP-100,2013-04-10 21:37:00,
2013-04-10 17:41:00,56.3,48.0,29.88,ESE,112,8.6,16.6,74,0.00,,,0.00,Rainwise IP-100,2013-04-10 21:41:00,
2013-04-10 17:46:00,55.8,48.0,29.88,SSE,157,2.8,9.3,75,0.00,,,0.00,Rainwise IP-100,2013-04-10 21:46:00,
2013-04-10 17:51:00,55.9,48.0,29.87,SE,135,3.3,5.4,75,0.00,,,0.00,Rainwise IP-100,2013-04-10 21:51:00,
2013-04-10 17:56:00,56.1,48.0,29.88,SSE,157,2.6,3.7,75,0.00,,,0.00,Rainwise IP-100,2013-04-10 21:56:00,
2013-04-10 18:01:00,56.6,49.0,29.89,SSW,202,5.1,6.1,75,0.00,,,0.00,Rainwise IP-100,2013-04-10 22:01:00,
2013-04-10 18:06:00,57.6,50.0,29.89,South,180,9.1,9.8,74,0.00,,,0.00,Rainwise IP-100,2013-04-10 22:06:00,
2013-04-10 18:11:00,58.1,50.0,29.90,SSE,157,5.6,9.8,73,0.00,,,0.00,Rainwise IP-100,2013-04-10 22:11:00,
2013-04-10 18:16:00,58.1,49.0,29.90,SSE,157,3.5,6.8,72,0.00,,,0.00,Rainwise IP-100,2013-04-10 22:16:00,
2013-04-10 18:21:00,58.1,49.0,29.90,South,180,4.9,7.9,72,0.00,,,0.00,Rainwise IP-100,2013-04-10 22:21:00,
2013-04-10 18:26:00,58.1,49.0,29.89,SSE,157,4.9,6.8,72,0.00,,,0.00,Rainwise IP-100,2013-04-10 22:26:00,
2013-04-10 18:31:00,57.8,49.0,29.88,SSE,157,6.1,7.5,72,0.00,,,0.00,Rainwise IP-100,2013-04-10 22:31:00,
2013-04-10 18:37:00,57.1,48.0,29.89,SSE,157,4.4,8.2,73,0.00,,,0.00,Rainwise IP-100,2013-04-10 22:37:00,
2013-04-10 18:41:00,56.7,48.0,29.88,SSE,157,4.7,6.5,73,0.00,,,0.00,Rainwise IP-100,2013-04-10 22:41:00,
2013-04-10 18:42:00,56.6,48.0,29.88,SSE,157,4.2,6.5,73,0.00,,,0.00,Rainwise IP-100,2013-04-10 22:42:00,
2013-04-10 18:46:00,56.3,48.0,29.89,South,180,5.1,6.3,74,0.00,,,0.00,Rainwise IP-100,2013-04-10 22:46:00,
2013-04-10 18:51:00,56.0,47.5,29.89,SSE,157,5.1,5.8,74,0.00,,,0.00,Rainwise IP-100,2013-04-10 22:51:00,
2013-04-10 18:56:00,55.3,47.5,29.88,SSE,157,6.8,8.4,75,0.00,,,0.00,Rainwise IP-100,2013-04-10 22:56:00,
2013-04-10 19:01:00,54.8,47.5,29.89,SSE,157,2.6,7.5,76,0.00,,,0.00,Rainwise IP-100,2013-04-10 23:01:00,
2013-04-10 19:06:00,54.4,47.5,29.92,WNW,292,11.2,11.2,77,0.00,,,0.00,Rainwise IP-100,2013-04-10 23:06:00,
2013-04-10 19:11:00,55.8,49.0,30.02,WNW,292,19.4,38.5,77,0.06,,,0.04,Rainwise IP-100,2013-04-10 23:11:00,
2013-04-10 19:12:00,55.8,49.0,30.02,WNW,292,19.6,38.5,77,0.06,,,0.05,Rainwise IP-100,2013-04-10 23:12:00,
2013-04-10 19:16:00,57.0,50.5,30.00,NNW,337,4.7,24.9,78,0.78,,,0.14,Rainwise IP-100,2013-04-10 23:16:00,
2013-04-10 19:22:00,56.6,50.5,29.99,WSW,247,3.7,11.9,81,1.08,,,0.21,Rainwise IP-100,2013-04-10 23:22:00,
2013-04-10 19:26:00,56.3,52.0,29.94,SSE,157,11.4,11.7,84,0.78,,,0.26,Rainwise IP-100,2013-04-10 23:26:00,
2013-04-10 19:31:00,55.8,51.0,29.93,SSE,157,18.2,19.6,85,0.54,,,0.30,Rainwise IP-100,2013-04-10 23:31:00,
2013-04-10 19:36:00,55.2,51.0,29.93,SSE,157,14.5,19.6,87,0.54,,,0.35,Rainwise IP-100,2013-04-10 23:36:00,
2013-04-10 19:41:00,54.5,50.5,29.93,SE,135,11.9,16.3,87,0.48,,,0.36,Rainwise IP-100,2013-04-10 23:41:00,
2013-04-10 19:47:00,53.4,50.0,29.92,SSE,157,7.2,13.8,88,0.36,,,0.41,Rainwise IP-100,2013-04-10 23:47:00,
2013-04-10 19:51:00,52.8,50.0,29.92,SSE,157,11.7,12.1,89,0.42,,,0.43,Rainwise IP-100,2013-04-10 23:51:00,
2013-04-10 19:56:00,52.0,49.0,29.91,SSE,157,11.9,13.3,89,0.18,,,0.44,Rainwise IP-100,2013-04-10 23:56:00,
2013-04-10 20:01:00,51.6,49.0,29.90,SSE,157,7.2,12.6,90,0.18,,,0.46,Rainwise IP-100,2013-04-11 00:01:00,
2013-04-10 20:06:00,51.1,49.0,29.89,SE,135,8.6,9.8,91,0.18,,,0.48,Rainwise IP-100,2013-04-11 00:06:00,
2013-04-10 20:11:00,50.5,48.0,29.86,ESE,112,11.7,14.7,92,5.94,,,1.45,Rainwise IP-100,2013-04-11 00:11:00,
2013-04-10 20:16:00,50.6,48.0,29.86,ESE,112,9.3,14.0,92,5.88,,,1.45,Rainwise IP-100,2013-04-11 00:16:00,
2013-04-10 20:21:00,50.6,48.0,29.84,East,90,6.8,9.3,93,0.06,,,1.46,Rainwise IP-100,2013-04-11 00:21:00,
2013-04-10 20:26:00,50.8,49.0,29.84,ESE,112,3.7,12.4,93,0.06,,,1.46,Rainwise IP-100,2013-04-11 00:26:00,
2013-04-10 20:31:00,51.3,49.0,29.85,SE,135,0.0,7.9,93,0.00,,,1.46,Rainwise IP-100,2013-04-11 00:31:00,
2013-04-10 20:36:00,51.4,49.0,29.85,NNE,22,3.5,4.9,93,0.00,,,1.46,Rainwise IP-100,2013-04-11 00:36:00,
2013-04-10 20:41:00,51.6,50.5,29.86,NW,315,4.7,5.4,94,0.00,,,1.46,Rainwise IP-100,2013-04-11 00:41:00,
2013-04-10 20:47:00,52.0,50.5,29.87,NW,315,1.6,6.1,94,0.00,,,1.46,Rainwise IP-100,2013-04-11 00:47:00,
2013-04-10 20:52:00,52.3,50.5,29.87,NE,45,2.3,3.5,95,0.00,,,1.46,Rainwise IP-100,2013-04-11 00:52:00,
2013-04-10 20:56:00,52.7,51.0,29.87,East,90,4.0,4.4,94,0.00,,,1.46,Rainwise IP-100,2013-04-11 00:56:00,
2013-04-10 21:01:00,53.1,50.5,29.87,ENE,67,4.4,5.4,93,0.00,,,1.46,Rainwise IP-100,2013-04-11 01:01:00,
2013-04-10 21:07:00,53.3,51.0,29.88,ENE,67,1.2,5.6,93,0.00,,,1.46,Rainwise IP-100,2013-04-11 01:07:00,
2013-04-10 21:11:00,53.1,50.5,29.90,SSW,202,2.6,6.3,93,0.00,,,1.46,Rainwise IP-100,2013-04-11 01:11:00,
2013-04-10 21:16:00,52.9,50.5,29.90,SSE,157,0.0,3.3,93,0.00,,,1.46,Rainwise IP-100,2013-04-11 01:16:00,
2013-04-10 21:17:00,52.9,50.5,29.90,SSW,202,0.0,3.3,93,0.00,,,1.46,Rainwise IP-100,2013-04-11 01:17:00,
2013-04-10 21:21:00,53.0,51.0,29.90,South,180,2.1,2.8,94,0.00,,,1.46,Rainwise IP-100,2013-04-11 01:21:00,
2013-04-10 21:27:00,53.2,51.0,29.90,South,180,0.0,2.8,94,0.00,,,1.46,Rainwise IP-100,2013-04-11 01:27:00,
2013-04-10 21:32:00,53.4,52.0,29.88,NW,315,0.0,2.8,94,0.00,,,1.46,Rainwise IP-100,2013-04-11 01:32:00,
2013-04-10 21:37:00,53.4,52.0,29.86,ESE,112,4.4,6.1,94,0.00,,,1.46,Rainwise IP-100,2013-04-11 01:37:00,
2013-04-10 21:41:00,53.3,52.0,29.86,ESE,112,0.0,6.1,94,0.00,,,1.46,Rainwise IP-100,2013-04-11 01:41:00,
2013-04-10 21:46:00,52.9,51.0,29.88,NE,45,2.3,5.6,94,0.00,,,1.46,Rainwise IP-100,2013-04-11 01:46:00,
2013-04-10 21:51:00,52.7,51.0,29.88,WNW,292,1.9,3.5,94,0.00,,,1.46,Rainwise IP-100,2013-04-11 01:51:00,
2013-04-10 21:56:00,52.8,51.0,29.88,West,270,3.0,4.0,94,0.00,,,1.46,Rainwise IP-100,2013-04-11 01:56:00,
2013-04-10 22:01:00,53.0,51.0,29.88,West,270,0.0,3.5,94,0.00,,,1.46,Rainwise IP-100,2013-04-11 02:01:00,
2013-04-10 22:06:00,53.3,52.0,29.88,NNW,337,4.4,4.4,95,0.00,,,1.46,Rainwise IP-100,2013-04-11 02:06:00,
2013-04-10 22:11:00,53.5,52.0,29.90,WNW,292,7.0,8.2,95,0.00,,,1.46,Rainwise IP-100,2013-04-11 02:11:00,
2013-04-10 22:16:00,53.8,53.0,29.89,NW,315,5.4,7.5,95,0.00,,,1.46,Rainwise IP-100,2013-04-11 02:16:00,
2013-04-10 22:21:00,54.3,53.5,29.92,WNW,292,9.6,9.6,95,0.00,,,1.46,Rainwise IP-100,2013-04-11 02:21:00,
2013-04-10 22:26:00,54.6,53.5,29.94,NW,315,14.2,16.1,95,0.00,,,1.46,Rainwise IP-100,2013-04-11 02:26:00,
2013-04-10 22:31:00,55.0,54.0,29.95,NNW,337,9.3,21.0,95,0.06,,,1.47,Rainwise IP-100,2013-04-11 02:31:00,
2013-04-10 22:36:00,55.4,54.0,29.94,WNW,292,6.3,13.8,95,0.48,,,1.54,Rainwise IP-100,2013-04-11 02:36:00,
2013-04-10 22:41:00,55.6,54.5,29.94,West,270,6.1,11.2,95,0.66,,,1.58,Rainwise IP-100,2013-04-11 02:41:00,
2013-04-10 22:46:00,55.7,54.5,29.94,West,270,3.7,8.6,95,0.36,,,1.60,Rainwise IP-100,2013-04-11 02:46:00,
2013-04-10 22:51:00,55.7,54.5,29.93,SW,225,2.3,5.4,95,0.18,,,1.61,Rainwise IP-100,2013-04-11 02:51:00,
2013-04-10 22:56:00,55.5,54.5,29.92,SSE,157,6.1,6.1,96,0.12,,,1.62,Rainwise IP-100,2013-04-11 02:56:00,
2013-04-10 23:01:00,55.3,54.0,29.90,SSE,157,10.3,10.3,96,0.12,,,1.63,Rainwise IP-100,2013-04-11 03:01:00,
2013-04-10 23:06:00,55.0,54.0,29.90,SSE,157,5.1,11.0,96,0.06,,,1.63,Rainwise IP-100,2013-04-11 03:06:00,
2013-04-10 23:11:00,54.2,53.0,29.90,SSE,157,6.1,7.9,96,0.00,,,1.63,Rainwise IP-100,2013-04-11 03:11:00,
2013-04-10 23:16:00,53.0,51.0,29.90,South,180,6.3,7.7,96,0.06,,,1.64,Rainwise IP-100,2013-04-11 03:16:00,
2013-04-10 23:21:00,52.7,51.0,29.92,SSW,202,3.5,7.9,96,0.06,,,1.64,Rainwise IP-100,2013-04-11 03:21:00,
2013-04-10 23:26:00,52.9,51.0,29.91,SSW,202,6.1,6.1,96,0.00,,,1.64,Rainwise IP-100,2013-04-11 03:26:00,
2013-04-10 23:31:00,53.3,52.0,29.91,South,180,9.3,10.7,96,0.00,,,1.64,Rainwise IP-100,2013-04-11 03:31:00,
2013-04-10 23:36:00,53.1,52.0,29.91,South,180,7.7,9.8,97,0.00,,,1.64,Rainwise IP-100,2013-04-11 03:36:00,
2013-04-10 23:41:00,52.6,52.0,29.92,SSW,202,7.2,9.3,97,0.00,,,1.64,Rainwise IP-100,2013-04-11 03:41:00,
2013-04-10 23:46:00,52.5,52.0,29.90,South,180,6.1,8.6,97,0.00,,,1.64,Rainwise IP-100,2013-04-11 03:46:00,
2013-04-10 23:47:00,52.5,52.0,29.90,South,180,6.8,8.6,97,0.00,,,1.64,Rainwise IP-100,2013-04-11 03:47:00,
2013-04-10 23:51:00,52.3,51.0,29.89,SSE,157,4.9,7.9,97,0.00,,,1.64,Rainwise IP-100,2013-04-11 03:51:00,
2013-04-10 23:56:00,51.8,51.0,29.89,SSE,157,3.0,5.6,97,0.00,,,1.64,Rainwise IP-100,2013-04-11 03:56:00,